Pagrindinis puslapis
METAR-TAF:

METAR-TAF

Oro uostai :

Caldwell, Naujasis Džersis, Jungtinės Amerikos Valstijos

platuma: 40-52-35N, ilguma: 074-16-59W, Aukštis: 52 m

Dabartinis oras

Ataskaita buvo paskelbta 34 minutes, ne 06:53 UTC
Vėjas 7 kt iš Vakarų/Pietvakarių su gūsio iki 15 kt, svyruoja nuo Pietų/Pietvakarių ir Vakarų
Temperatūra -1°C
Drėgmė 43%
Slėgis 1010 hPa
Matomumas: 16.1 km
Su prošvaistėmis ne aukštis 5500 ft

METAR: KCDW 280653Z AUTO 24007G15KT 210V270 10SM BKN055 M01/M12 A2982 RMK AO2 SLP106 T10061117

Laikas: 02:27 (07:27 UTC)


TAF: trūkstamas

Orai ataskaitas ir orų prognozės (METAR, TAF).

turimą stotys yra geltonos ir raudonos taškus žemėlapyje.

Perkelti pele per norėdami pamatyti stoties vardą.

Tada spustelėkite, norėdami matyti oro stebėjimo ir prognozės.

Norėdami pakeisti žemėlapį: spustelėkite ant žalios mygtukų su juodo kryžiaus žemyn,; žalią mygtuką su brūkšneliu, jei norite nutolinti; arba žalių rodyklių gretimoms žemėlapius.


METAR-TAF: